sensor_id;sensor_type;location;lat;lon;timestamp;pressure;altitude;pressure_sealevel;temperature;humidity
11515;BME280;5814;41.936;25.556;2024-03-25T00:01:42;97577.75;;;13.95;93.17
11515;BME280;5814;41.936;25.556;2024-03-25T00:04:07;97575.25;;;13.67;95.52
11515;BME280;5814;41.936;25.556;2024-03-25T00:06:33;97568.34;;;13.66;95.91
11515;BME280;5814;41.936;25.556;2024-03-25T00:09:00;97558.84;;;13.77;94.52
11515;BME280;5814;41.936;25.556;2024-03-25T00:11:26;97576.00;;;13.96;93.25
11515;BME280;5814;41.936;25.556;2024-03-25T00:13:52;97589.34;;;14.06;92.04
11515;BME280;5814;41.936;25.556;2024-03-25T00:16:17;97587.19;;;14.25;90.64
11515;BME280;5814;41.936;25.556;2024-03-25T00:18:43;97589.81;;;14.25;90.69
11515;BME280;5814;41.936;25.556;2024-03-25T00:21:08;97578.34;;;14.26;88.96
11515;BME280;5814;41.936;25.556;2024-03-25T00:23:34;97575.72;;;14.39;87.94
11515;BME280;5814;41.936;25.556;2024-03-25T00:25:59;97562.22;;;14.58;87.23
11515;BME280;5814;41.936;25.556;2024-03-25T00:28:24;97557.16;;;14.29;88.59
11515;BME280;5814;41.936;25.556;2024-03-25T00:30:50;97551.16;;;14.01;90.20
11515;BME280;5814;41.936;25.556;2024-03-25T00:33:15;97557.97;;;13.91;93.71
11515;BME280;5814;41.936;25.556;2024-03-25T00:35:43;97540.84;;;13.46;96.50
11515;BME280;5814;41.936;25.556;2024-03-25T00:38:08;97535.25;;;13.77;95.01
11515;BME280;5814;41.936;25.556;2024-03-25T00:40:34;97529.72;;;13.82;93.67
11515;BME280;5814;41.936;25.556;2024-03-25T00:43:00;97519.91;;;13.58;95.89
11515;BME280;5814;41.936;25.556;2024-03-25T00:45:25;97519.38;;;13.53;96.69
11515;BME280;5814;41.936;25.556;2024-03-25T00:47:58;97520.09;;;13.55;96.90
11515;BME280;5814;41.936;25.556;2024-03-25T00:50:25;97519.19;;;13.69;95.58
11515;BME280;5814;41.936;25.556;2024-03-25T00:52:51;97523.31;;;13.86;93.89
11515;BME280;5814;41.936;25.556;2024-03-25T00:55:17;97510.94;;;13.75;94.10
11515;BME280;5814;41.936;25.556;2024-03-25T00:57:43;97510.84;;;13.90;93.07
11515;BME280;5814;41.936;25.556;2024-03-25T01:00:09;97506.56;;;13.49;96.71
11515;BME280;5814;41.936;25.556;2024-03-25T01:02:35;97505.53;;;13.51;97.70
11515;BME280;5814;41.936;25.556;2024-03-25T01:05:00;97501.38;;;13.34;98.30
11515;BME280;5814;41.936;25.556;2024-03-25T01:07:26;97496.91;;;13.49;96.33
11515;BME280;5814;41.936;25.556;2024-03-25T01:09:51;97503.59;;;13.40;96.95
11515;BME280;5814;41.936;25.556;2024-03-25T01:12:17;97487.50;;;13.59;95.91
11515;BME280;5814;41.936;25.556;2024-03-25T01:14:42;97472.78;;;13.31;96.75
11515;BME280;5814;41.936;25.556;2024-03-25T01:17:08;97470.31;;;13.28;98.43
11515;BME280;5814;41.936;25.556;2024-03-25T01:19:33;97467.84;;;13.39;98.35
11515;BME280;5814;41.936;25.556;2024-03-25T01:21:59;97472.56;;;13.74;95.52
11515;BME280;5814;41.936;25.556;2024-03-25T01:24:24;97416.84;;;13.18;97.19
11515;BME280;5814;41.936;25.556;2024-03-25T01:26:50;97471.44;;;13.91;94.47
11515;BME280;5814;41.936;25.556;2024-03-25T01:29:16;97473.78;;;13.69;95.31
11515;BME280;5814;41.936;25.556;2024-03-25T01:31:42;97457.75;;;13.86;93.54
11515;BME280;5814;41.936;25.556;2024-03-25T01:34:08;97461.03;;;14.15;92.34
11515;BME280;5814;41.936;25.556;2024-03-25T01:36:33;97461.88;;;14.41;89.62
11515;BME280;5814;41.936;25.556;2024-03-25T01:39:00;97474.22;;;14.78;87.83
11515;BME280;5814;41.936;25.556;2024-03-25T01:41:25;97469.56;;;14.81;86.56
11515;BME280;5814;41.936;25.556;2024-03-25T01:43:52;97469.66;;;14.56;87.57
11515;BME280;5814;41.936;25.556;2024-03-25T01:46:18;97464.69;;;14.64;86.79
11515;BME280;5814;41.936;25.556;2024-03-25T01:48:48;97451.44;;;14.53;87.99
11515;BME280;5814;41.936;25.556;2024-03-25T01:51:16;97438.66;;;14.61;86.64
11515;BME280;5814;41.936;25.556;2024-03-25T01:53:44;97444.75;;;14.61;86.41
11515;BME280;5814;41.936;25.556;2024-03-25T01:56:10;97455.00;;;14.64;86.01
11515;BME280;5814;41.936;25.556;2024-03-25T01:58:39;97421.06;;;14.74;85.31
11515;BME280;5814;41.936;25.556;2024-03-25T02:01:05;97426.81;;;14.79;85.19
11515;BME280;5814;41.936;25.556;2024-03-25T02:03:31;97387.06;;;14.73;84.39
11515;BME280;5814;41.936;25.556;2024-03-25T02:06:02;97417.34;;;14.89;83.04
11515;BME280;5814;41.936;25.556;2024-03-25T02:08:30;97452.56;;;15.11;82.61
11515;BME280;5814;41.936;25.556;2024-03-25T02:10:56;97465.53;;;15.01;82.71
11515;BME280;5814;41.936;25.556;2024-03-25T02:13:23;97463.09;;;14.98;83.87
11515;BME280;5814;41.936;25.556;2024-03-25T02:15:49;97480.00;;;15.07;83.09
11515;BME280;5814;41.936;25.556;2024-03-25T02:18:19;97491.09;;;14.86;83.82
11515;BME280;5814;41.936;25.556;2024-03-25T02:20:45;97493.84;;;14.85;84.36
11515;BME280;5814;41.936;25.556;2024-03-25T02:23:12;97521.81;;;14.73;84.97
11515;BME280;5814;41.936;25.556;2024-03-25T02:25:38;97541.31;;;14.69;86.48
11515;BME280;5814;41.936;25.556;2024-03-25T02:28:04;97546.66;;;14.29;91.68
11515;BME280;5814;41.936;25.556;2024-03-25T02:30:30;97562.47;;;13.35;99.06
11515;BME280;5814;41.936;25.556;2024-03-25T02:32:55;97564.56;;;12.87;100.00
11515;BME280;5814;41.936;25.556;2024-03-25T02:35:22;97557.09;;;12.38;100.00
11515;BME280;5814;41.936;25.556;2024-03-25T02:37:50;97574.75;;;12.34;100.00
11515;BME280;5814;41.936;25.556;2024-03-25T02:40:17;97591.66;;;12.28;100.00
11515;BME280;5814;41.936;25.556;2024-03-25T02:42:43;97613.81;;;12.07;100.00
11515;BME280;5814;41.936;25.556;2024-03-25T02:45:09;97608.63;;;11.91;100.00
11515;BME280;5814;41.936;25.556;2024-03-25T02:47:35;97592.28;;;11.71;100.00
11515;BME280;5814;41.936;25.556;2024-03-25T02:50:01;97609.13;;;11.66;100.00
11515;BME280;5814;41.936;25.556;2024-03-25T02:52:27;97612.34;;;11.87;100.00
11515;BME280;5814;41.936;25.556;2024-03-25T02:54:52;97606.50;;;11.98;100.00
11515;BME280;5814;41.936;25.556;2024-03-25T02:57:19;97615.34;;;11.79;100.00
11515;BME280;5814;41.936;25.556;2024-03-25T02:59:45;97622.25;;;11.80;100.00
11515;BME280;5814;41.936;25.556;2024-03-25T03:02:10;97630.28;;;11.93;100.00
11515;BME280;5814;41.936;25.556;2024-03-25T03:04:36;97627.47;;;11.80;100.00
11515;BME280;5814;41.936;25.556;2024-03-25T03:07:01;97628.16;;;11.84;100.00
11515;BME280;5814;41.936;25.556;2024-03-25T03:09:27;97616.22;;;11.64;100.00
11515;BME280;5814;41.936;25.556;2024-03-25T03:11:52;97631.13;;;11.46;100.00
11515;BME280;5814;41.936;25.556;2024-03-25T03:14:18;97636.88;;;11.37;100.00
11515;BME280;5814;41.936;25.556;2024-03-25T03:16:43;97633.75;;;11.62;100.00
11515;BME280;5814;41.936;25.556;2024-03-25T03:19:09;97645.22;;;11.59;100.00
11515;BME280;5814;41.936;25.556;2024-03-25T03:21:35;97653.22;;;11.72;100.00
11515;BME280;5814;41.936;25.556;2024-03-25T03:24:02;97662.75;;;11.57;100.00
11515;BME280;5814;41.936;25.556;2024-03-25T03:26:28;97671.91;;;11.48;100.00
11515;BME280;5814;41.936;25.556;2024-03-25T03:28:54;97684.41;;;11.59;100.00
11515;BME280;5814;41.936;25.556;2024-03-25T03:31:19;97694.00;;;11.43;100.00
11515;BME280;5814;41.936;25.556;2024-03-25T03:33:47;97694.94;;;11.74;100.00
11515;BME280;5814;41.936;25.556;2024-03-25T03:36:15;97715.25;;;11.53;100.00
11515;BME280;5814;41.936;25.556;2024-03-25T03:38:40;97726.34;;;11.40;100.00
11515;BME280;5814;41.936;25.556;2024-03-25T03:41:06;97731.69;;;11.55;100.00
11515;BME280;5814;41.936;25.556;2024-03-25T03:43:32;97739.31;;;11.42;100.00
11515;BME280;5814;41.936;25.556;2024-03-25T03:45:57;97741.59;;;11.48;100.00
11515;BME280;5814;41.936;25.556;2024-03-25T03:48:23;97741.25;;;11.38;100.00
11515;BME280;5814;41.936;25.556;2024-03-25T03:50:48;97739.53;;;11.37;100.00
11515;BME280;5814;41.936;25.556;2024-03-25T03:53:14;97742.78;;;11.42;100.00
11515;BME280;5814;41.936;25.556;2024-03-25T03:55:39;97735.53;;;11.14;100.00
11515;BME280;5814;41.936;25.556;2024-03-25T03:58:05;97729.25;;;11.18;100.00
11515;BME280;5814;41.936;25.556;2024-03-25T04:00:33;97742.81;;;11.25;100.00
11515;BME280;5814;41.936;25.556;2024-03-25T04:03:00;97730.56;;;11.10;100.00
11515;BME280;5814;41.936;25.556;2024-03-25T04:05:29;97739.84;;;11.15;100.00
11515;BME280;5814;41.936;25.556;2024-03-25T04:07:55;97740.41;;;11.04;100.00
11515;BME280;5814;41.936;25.556;2024-03-25T04:10:21;97754.72;;;10.80;100.00
11515;BME280;5814;41.936;25.556;2024-03-25T04:12:46;97738.06;;;10.82;100.00
11515;BME280;5814;41.936;25.556;2024-03-25T04:15:12;97750.88;;;10.87;100.00
11515;BME280;5814;41.936;25.556;2024-03-25T04:17:43;97746.25;;;10.75;100.00
11515;BME280;5814;41.936;25.556;2024-03-25T04:20:11;97755.53;;;10.98;100.00
11515;BME280;5814;41.936;25.556;2024-03-25T04:22:37;97760.19;;;11.26;100.00
11515;BME280;5814;41.936;25.556;2024-03-25T04:25:06;97743.25;;;11.00;100.00
11515;BME280;5814;41.936;25.556;2024-03-25T04:27:31;97757.31;;;10.80;100.00
11515;BME280;5814;41.936;25.556;2024-03-25T04:29:57;97779.72;;;10.67;100.00
11515;BME280;5814;41.936;25.556;2024-03-25T04:32:22;97775.88;;;10.74;100.00
11515;BME280;5814;41.936;25.556;2024-03-25T04:34:47;97783.69;;;10.74;100.00
11515;BME280;5814;41.936;25.556;2024-03-25T04:37:13;97795.91;;;10.73;100.00
11515;BME280;5814;41.936;25.556;2024-03-25T04:39:40;97798.69;;;10.88;100.00
11515;BME280;5814;41.936;25.556;2024-03-25T04:42:05;97797.97;;;10.67;100.00
11515;BME280;5814;41.936;25.556;2024-03-25T04:44:31;97796.41;;;10.62;100.00
11515;BME280;5814;41.936;25.556;2024-03-25T04:46:57;97790.75;;;10.54;100.00
11515;BME280;5814;41.936;25.556;2024-03-25T04:49:22;97800.41;;;10.52;100.00
11515;BME280;5814;41.936;25.556;2024-03-25T04:51:48;97803.72;;;10.91;100.00
11515;BME280;5814;41.936;25.556;2024-03-25T04:54:16;97817.47;;;10.40;100.00
11515;BME280;5814;41.936;25.556;2024-03-25T04:56:41;97815.22;;;10.52;100.00
11515;BME280;5814;41.936;25.556;2024-03-25T04:59:07;97811.69;;;10.70;100.00
11515;BME280;5814;41.936;25.556;2024-03-25T05:01:32;97817.00;;;10.69;100.00
11515;BME280;5814;41.936;25.556;2024-03-25T05:03:58;97810.28;;;10.46;100.00
11515;BME280;5814;41.936;25.556;2024-03-25T05:06:23;97815.06;;;10.55;100.00
11515;BME280;5814;41.936;25.556;2024-03-25T05:08:49;97820.72;;;10.63;100.00
11515;BME280;5814;41.936;25.556;2024-03-25T05:11:15;97810.66;;;10.38;100.00
11515;BME280;5814;41.936;25.556;2024-03-25T05:13:40;97796.59;;;10.77;100.00
11515;BME280;5814;41.936;25.556;2024-03-25T05:16:06;97806.03;;;10.79;100.00
11515;BME280;5814;41.936;25.556;2024-03-25T05:18:31;97794.97;;;10.74;100.00
11515;BME280;5814;41.936;25.556;2024-03-25T05:20:57;97803.50;;;10.78;100.00
11515;BME280;5814;41.936;25.556;2024-03-25T05:23:22;97799.34;;;10.74;100.00
11515;BME280;5814;41.936;25.556;2024-03-25T05:25:47;97784.84;;;10.68;100.00
11515;BME280;5814;41.936;25.556;2024-03-25T05:28:13;97785.84;;;10.66;100.00
11515;BME280;5814;41.936;25.556;2024-03-25T05:30:39;97797.63;;;10.55;100.00
11515;BME280;5814;41.936;25.556;2024-03-25T05:33:04;97799.97;;;10.96;100.00
11515;BME280;5814;41.936;25.556;2024-03-25T05:35:30;97793.66;;;11.18;100.00
11515;BME280;5814;41.936;25.556;2024-03-25T05:37:58;97800.13;;;10.76;100.00
11515;BME280;5814;41.936;25.556;2024-03-25T05:40:23;97770.94;;;10.68;100.00
11515;BME280;5814;41.936;25.556;2024-03-25T05:42:49;97775.25;;;10.51;100.00
11515;BME280;5814;41.936;25.556;2024-03-25T05:45:17;97766.22;;;10.76;100.00
11515;BME280;5814;41.936;25.556;2024-03-25T05:47:42;97779.94;;;10.79;100.00
11515;BME280;5814;41.936;25.556;2024-03-25T05:50:08;97762.03;;;10.89;100.00
11515;BME280;5814;41.936;25.556;2024-03-25T05:52:33;97769.72;;;11.10;100.00
11515;BME280;5814;41.936;25.556;2024-03-25T05:54:59;97778.84;;;11.18;100.00
11515;BME280;5814;41.936;25.556;2024-03-25T05:57:24;97780.00;;;11.13;100.00
11515;BME280;5814;41.936;25.556;2024-03-25T05:59:50;97772.41;;;11.25;100.00
11515;BME280;5814;41.936;25.556;2024-03-25T06:02:15;97785.94;;;11.32;100.00
11515;BME280;5814;41.936;25.556;2024-03-25T06:04:41;97775.84;;;11.59;100.00
11515;BME280;5814;41.936;25.556;2024-03-25T06:07:06;97789.63;;;11.45;100.00
11515;BME280;5814;41.936;25.556;2024-03-25T06:09:32;97774.91;;;11.27;99.45
11515;BME280;5814;41.936;25.556;2024-03-25T06:11:57;97788.78;;;11.45;100.00
11515;BME280;5814;41.936;25.556;2024-03-25T06:14:23;97779.66;;;11.36;100.00
11515;BME280;5814;41.936;25.556;2024-03-25T06:16:49;97809.25;;;11.19;96.60
11515;BME280;5814;41.936;25.556;2024-03-25T06:19:14;97808.56;;;11.33;96.21
11515;BME280;5814;41.936;25.556;2024-03-25T06:21:40;97789.78;;;11.42;97.77
11515;BME280;5814;41.936;25.556;2024-03-25T06:24:05;97807.44;;;11.55;95.54
11515;BME280;5814;41.936;25.556;2024-03-25T06:26:31;97797.94;;;11.69;93.11
11515;BME280;5814;41.936;25.556;2024-03-25T06:28:56;97801.91;;;11.77;93.50
11515;BME280;5814;41.936;25.556;2024-03-25T06:31:22;97798.00;;;11.68;92.00
11515;BME280;5814;41.936;25.556;2024-03-25T06:34:06;97800.22;;;11.76;93.59
11515;BME280;5814;41.936;25.556;2024-03-25T06:36:43;97812.56;;;11.89;90.39
11515;BME280;5814;41.936;25.556;2024-03-25T06:39:10;97816.34;;;11.84;92.07
11515;BME280;5814;41.936;25.556;2024-03-25T06:41:36;97826.09;;;11.80;88.63
11515;BME280;5814;41.936;25.556;2024-03-25T06:44:01;97840.44;;;11.56;91.33
11515;BME280;5814;41.936;25.556;2024-03-25T06:46:27;97849.00;;;11.59;90.29
11515;BME280;5814;41.936;25.556;2024-03-25T06:48:52;97845.06;;;11.50;90.79
11515;BME280;5814;41.936;25.556;2024-03-25T06:51:18;97852.59;;;11.39;91.29
11515;BME280;5814;41.936;25.556;2024-03-25T06:53:44;97857.19;;;11.52;90.32
11515;BME280;5814;41.936;25.556;2024-03-25T06:56:10;97858.19;;;11.66;92.51
11515;BME280;5814;41.936;25.556;2024-03-25T06:58:35;97861.94;;;11.78;88.13
11515;BME280;5814;41.936;25.556;2024-03-25T07:01:08;97854.09;;;11.78;87.68
11515;BME280;5814;41.936;25.556;2024-03-25T07:03:34;97849.44;;;12.01;88.66
11515;BME280;5814;41.936;25.556;2024-03-25T07:06:01;97858.56;;;12.41;87.26
11515;BME280;5814;41.936;25.556;2024-03-25T07:08:27;97847.75;;;12.79;84.57
11515;BME280;5814;41.936;25.556;2024-03-25T07:10:54;97853.63;;;12.83;82.67
11515;BME280;5814;41.936;25.556;2024-03-25T07:13:19;97862.06;;;12.88;80.25
11515;BME280;5814;41.936;25.556;2024-03-25T07:15:45;97849.66;;;12.91;77.63
11515;BME280;5814;41.936;25.556;2024-03-25T07:18:11;97847.06;;;12.75;77.79
11515;BME280;5814;41.936;25.556;2024-03-25T07:20:39;97846.41;;;12.56;76.60
11515;BME280;5814;41.936;25.556;2024-03-25T07:23:04;97862.78;;;12.60;75.50
11515;BME280;5814;41.936;25.556;2024-03-25T07:25:30;97866.25;;;12.44;76.00
11515;BME280;5814;41.936;25.556;2024-03-25T07:27:56;97855.38;;;12.36;76.60
11515;BME280;5814;41.936;25.556;2024-03-25T07:30:22;97883.69;;;12.28;77.19
11515;BME280;5814;41.936;25.556;2024-03-25T07:32:51;97899.66;;;12.39;77.79
11515;BME280;5814;41.936;25.556;2024-03-25T07:35:16;97898.00;;;12.38;76.05
11515;BME280;5814;41.936;25.556;2024-03-25T07:37:45;97897.38;;;12.17;76.26
11515;BME280;5814;41.936;25.556;2024-03-25T07:40:10;97907.34;;;12.26;77.19
11515;BME280;5814;41.936;25.556;2024-03-25T07:42:39;97908.19;;;12.59;76.63
11515;BME280;5814;41.936;25.556;2024-03-25T07:45:05;97909.22;;;12.72;75.51
11515;BME280;5814;41.936;25.556;2024-03-25T07:47:31;97912.91;;;12.68;76.95
11515;BME280;5814;41.936;25.556;2024-03-25T07:49:57;97917.56;;;12.79;75.38
11515;BME280;5814;41.936;25.556;2024-03-25T07:52:22;97913.41;;;12.59;74.93
11515;BME280;5814;41.936;25.556;2024-03-25T07:54:48;97933.59;;;12.72;75.47
11515;BME280;5814;41.936;25.556;2024-03-25T07:57:13;97912.31;;;12.94;74.05
11515;BME280;5814;41.936;25.556;2024-03-25T07:59:38;97937.59;;;13.42;74.01
11515;BME280;5814;41.936;25.556;2024-03-25T08:02:04;97947.16;;;13.87;72.70
11515;BME280;5814;41.936;25.556;2024-03-25T08:04:30;97960.53;;;13.52;72.27
11515;BME280;5814;41.936;25.556;2024-03-25T08:06:56;97962.38;;;13.20;71.42
11515;BME280;5814;41.936;25.556;2024-03-25T08:09:22;97976.59;;;13.00;71.07
11515;BME280;5814;41.936;25.556;2024-03-25T08:11:47;97971.50;;;13.29;70.91
11515;BME280;5814;41.936;25.556;2024-03-25T08:14:12;97966.91;;;13.16;70.77
11515;BME280;5814;41.936;25.556;2024-03-25T08:16:38;97960.91;;;13.14;71.22
11515;BME280;5814;41.936;25.556;2024-03-25T08:19:03;97963.91;;;13.08;71.56
11515;BME280;5814;41.936;25.556;2024-03-25T08:21:29;97942.56;;;12.84;72.32
11515;BME280;5814;41.936;25.556;2024-03-25T08:23:55;97949.81;;;12.79;72.31
11515;BME280;5814;41.936;25.556;2024-03-25T08:26:20;97953.84;;;12.69;72.74
11515;BME280;5814;41.936;25.556;2024-03-25T08:28:46;97933.44;;;12.91;72.22
11515;BME280;5814;41.936;25.556;2024-03-25T08:31:14;97963.13;;;13.38;70.29
11515;BME280;5814;41.936;25.556;2024-03-25T08:33:39;97956.91;;;13.55;68.66
11515;BME280;5814;41.936;25.556;2024-03-25T08:36:05;97949.44;;;13.63;67.79
11515;BME280;5814;41.936;25.556;2024-03-25T08:38:31;97953.13;;;13.75;67.26
11515;BME280;5814;41.936;25.556;2024-03-25T08:40:56;97972.09;;;13.64;67.74
11515;BME280;5814;41.936;25.556;2024-03-25T08:43:21;97965.25;;;13.61;67.46
11515;BME280;5814;41.936;25.556;2024-03-25T08:45:47;97968.50;;;13.95;68.00
11515;BME280;5814;41.936;25.556;2024-03-25T08:48:12;97964.22;;;14.23;66.34
11515;BME280;5814;41.936;25.556;2024-03-25T08:50:38;97960.16;;;14.46;64.66
11515;BME280;5814;41.936;25.556;2024-03-25T08:53:04;97966.66;;;14.26;62.30
11515;BME280;5814;41.936;25.556;2024-03-25T08:55:30;97972.94;;;14.38;61.57
11515;BME280;5814;41.936;25.556;2024-03-25T08:57:56;97967.88;;;14.20;60.80
11515;BME280;5814;41.936;25.556;2024-03-25T09:00:24;97977.53;;;14.34;60.33
11515;BME280;5814;41.936;25.556;2024-03-25T09:02:50;97985.06;;;14.55;60.94
11515;BME280;5814;41.936;25.556;2024-03-25T09:05:15;97981.84;;;14.78;59.87
11515;BME280;5814;41.936;25.556;2024-03-25T09:07:44;97991.31;;;14.52;60.32
11515;BME280;5814;41.936;25.556;2024-03-25T09:10:10;97998.03;;;14.99;59.37
11515;BME280;5814;41.936;25.556;2024-03-25T09:12:54;97999.66;;;15.15;57.68
11515;BME280;5814;41.936;25.556;2024-03-25T09:15:20;97980.41;;;15.01;55.94
11515;BME280;5814;41.936;25.556;2024-03-25T09:17:45;98002.22;;;15.16;56.08
11515;BME280;5814;41.936;25.556;2024-03-25T09:20:11;98008.69;;;15.10;55.50
11515;BME280;5814;41.936;25.556;2024-03-25T09:22:42;98002.91;;;14.91;55.56
11515;BME280;5814;41.936;25.556;2024-03-25T09:25:08;98008.47;;;15.28;55.31
11515;BME280;5814;41.936;25.556;2024-03-25T09:27:34;97998.47;;;15.06;54.08
11515;BME280;5814;41.936;25.556;2024-03-25T09:29:59;98005.13;;;15.12;54.24
11515;BME280;5814;41.936;25.556;2024-03-25T09:32:25;97998.47;;;15.06;54.00
11515;BME280;5814;41.936;25.556;2024-03-25T09:34:51;97996.41;;;15.11;53.94
11515;BME280;5814;41.936;25.556;2024-03-25T09:37:17;97994.66;;;15.24;54.05
11515;BME280;5814;41.936;25.556;2024-03-25T09:39:43;97978.25;;;15.48;53.73
11515;BME280;5814;41.936;25.556;2024-03-25T09:42:14;97980.41;;;15.68;52.62
11515;BME280;5814;41.936;25.556;2024-03-25T09:44:40;97979.44;;;16.22;51.65
11515;BME280;5814;41.936;25.556;2024-03-25T09:47:05;97986.59;;;16.33;50.77
11515;BME280;5814;41.936;25.556;2024-03-25T09:49:33;97977.78;;;16.71;51.12
11515;BME280;5814;41.936;25.556;2024-03-25T09:51:59;97985.00;;;17.06;49.65
11515;BME280;5814;41.936;25.556;2024-03-25T09:54:25;97990.56;;;17.14;48.23
11515;BME280;5814;41.936;25.556;2024-03-25T09:56:50;98003.28;;;16.83;48.02
11515;BME280;5814;41.936;25.556;2024-03-25T09:59:16;98017.63;;;16.28;47.63
11515;BME280;5814;41.936;25.556;2024-03-25T10:01:42;98020.34;;;15.61;48.57
11515;BME280;5814;41.936;25.556;2024-03-25T10:04:08;98030.53;;;15.52;49.29
11515;BME280;5814;41.936;25.556;2024-03-25T10:06:35;98026.53;;;15.87;50.05
11515;BME280;5814;41.936;25.556;2024-03-25T10:09:04;98034.97;;;15.92;50.23
11515;BME280;5814;41.936;25.556;2024-03-25T10:11:31;98043.34;;;16.11;50.76
11515;BME280;5814;41.936;25.556;2024-03-25T10:14:03;98038.25;;;16.08;49.00
11515;BME280;5814;41.936;25.556;2024-03-25T10:16:29;98038.84;;;15.86;48.78
11515;BME280;5814;41.936;25.556;2024-03-25T10:18:54;98030.34;;;15.83;49.45
11515;BME280;5814;41.936;25.556;2024-03-25T10:21:21;98019.00;;;15.68;48.95
11515;BME280;5814;41.936;25.556;2024-03-25T10:23:48;98009.31;;;15.95;48.83
11515;BME280;5814;41.936;25.556;2024-03-25T10:26:31;98005.44;;;16.14;47.62
11515;BME280;5814;41.936;25.556;2024-03-25T10:29:05;97980.59;;;16.31;46.85
11515;BME280;5814;41.936;25.556;2024-03-25T10:31:32;97985.94;;;16.29;45.83
11515;BME280;5814;41.936;25.556;2024-03-25T10:33:58;98005.03;;;16.33;45.80
11515;BME280;5814;41.936;25.556;2024-03-25T10:36:24;97985.00;;;16.30;45.79
11515;BME280;5814;41.936;25.556;2024-03-25T10:38:54;97962.78;;;16.47;44.99
11515;BME280;5814;41.936;25.556;2024-03-25T10:41:20;97973.06;;;16.63;45.24
11515;BME280;5814;41.936;25.556;2024-03-25T10:43:47;97971.13;;;16.78;45.27
11515;BME280;5814;41.936;25.556;2024-03-25T10:46:17;97979.97;;;17.03;45.09
11515;BME280;5814;41.936;25.556;2024-03-25T10:48:48;97978.75;;;17.19;44.88
11515;BME280;5814;41.936;25.556;2024-03-25T10:51:16;97983.69;;;17.48;44.29
11515;BME280;5814;41.936;25.556;2024-03-25T10:53:42;97996.16;;;17.09;43.96
11515;BME280;5814;41.936;25.556;2024-03-25T10:56:08;97983.53;;;17.01;43.70
11515;BME280;5814;41.936;25.556;2024-03-25T10:58:35;97991.44;;;17.50;43.48
11515;BME280;5814;41.936;25.556;2024-03-25T11:01:02;97994.75;;;17.64;42.57
11515;BME280;5814;41.936;25.556;2024-03-25T11:03:28;98016.03;;;17.74;41.83
11515;BME280;5814;41.936;25.556;2024-03-25T11:05:54;98012.56;;;18.09;41.98
11515;BME280;5814;41.936;25.556;2024-03-25T11:08:19;98019.72;;;17.72;40.91
11515;BME280;5814;41.936;25.556;2024-03-25T11:10:46;98014.63;;;17.33;41.60
11515;BME280;5814;41.936;25.556;2024-03-25T11:13:19;98018.00;;;17.35;42.40
11515;BME280;5814;41.936;25.556;2024-03-25T11:15:48;98021.09;;;17.29;42.64
11515;BME280;5814;41.936;25.556;2024-03-25T11:18:16;98008.31;;;17.71;42.11
11515;BME280;5814;41.936;25.556;2024-03-25T11:20:42;98011.44;;;17.65;41.84
11515;BME280;5814;41.936;25.556;2024-03-25T11:23:12;98013.00;;;17.68;41.11
11515;BME280;5814;41.936;25.556;2024-03-25T11:25:39;98015.75;;;17.18;40.84
11515;BME280;5814;41.936;25.556;2024-03-25T11:28:05;98015.09;;;17.27;40.64
11515;BME280;5814;41.936;25.556;2024-03-25T11:30:30;98026.97;;;17.57;40.03
11515;BME280;5814;41.936;25.556;2024-03-25T11:32:57;98030.41;;;17.94;39.58
11515;BME280;5814;41.936;25.556;2024-03-25T11:35:23;98021.81;;;18.26;38.60
11515;BME280;5814;41.936;25.556;2024-03-25T11:37:49;98022.66;;;18.15;39.04
11515;BME280;5814;41.936;25.556;2024-03-25T11:40:18;98033.56;;;18.11;39.42
11515;BME280;5814;41.936;25.556;2024-03-25T11:42:45;98038.66;;;17.65;39.95
11515;BME280;5814;41.936;25.556;2024-03-25T11:45:19;98050.53;;;17.23;39.91
11515;BME280;5814;41.936;25.556;2024-03-25T11:47:46;98042.78;;;17.57;39.70
11515;BME280;5814;41.936;25.556;2024-03-25T11:50:17;98039.38;;;17.68;38.93
11515;BME280;5814;41.936;25.556;2024-03-25T11:52:44;98034.72;;;17.71;39.16
11515;BME280;5814;41.936;25.556;2024-03-25T11:55:09;98045.91;;;17.51;38.83
11515;BME280;5814;41.936;25.556;2024-03-25T11:57:37;98043.44;;;17.84;38.07
11515;BME280;5814;41.936;25.556;2024-03-25T12:00:07;98052.31;;;17.83;37.39
11515;BME280;5814;41.936;25.556;2024-03-25T12:02:36;98045.94;;;18.21;37.89
11515;BME280;5814;41.936;25.556;2024-03-25T12:05:05;97998.75;;;17.70;37.44
11515;BME280;5814;41.936;25.556;2024-03-25T12:07:31;98039.34;;;17.80;37.40
11515;BME280;5814;41.936;25.556;2024-03-25T12:09:58;98063.06;;;17.32;37.52
11515;BME280;5814;41.936;25.556;2024-03-25T12:12:43;98046.69;;;17.03;37.09
11515;BME280;5814;41.936;25.556;2024-03-25T12:15:09;98052.38;;;17.10;38.49
11515;BME280;5814;41.936;25.556;2024-03-25T12:17:35;98043.13;;;17.28;38.92
11515;BME280;5814;41.936;25.556;2024-03-25T12:20:04;98064.44;;;17.25;38.75
11515;BME280;5814;41.936;25.556;2024-03-25T12:22:31;98053.19;;;17.47;37.36
11515;BME280;5814;41.936;25.556;2024-03-25T12:25:01;98047.34;;;17.55;37.12
11515;BME280;5814;41.936;25.556;2024-03-25T12:27:28;98061.22;;;17.46;37.27
11515;BME280;5814;41.936;25.556;2024-03-25T12:30:07;98059.13;;;17.38;37.55
11515;BME280;5814;41.936;25.556;2024-03-25T12:34:59;98069.47;;;16.53;35.82
11515;BME280;5814;41.936;25.556;2024-03-25T12:37:27;98070.09;;;16.56;36.44
11515;BME280;5814;41.936;25.556;2024-03-25T12:39:53;98061.75;;;16.24;36.44
11515;BME280;5814;41.936;25.556;2024-03-25T12:42:19;98052.63;;;16.43;36.74
11515;BME280;5814;41.936;25.556;2024-03-25T12:44:44;98069.91;;;16.59;35.98
11515;BME280;5814;41.936;25.556;2024-03-25T12:47:10;98059.97;;;17.01;36.37
11515;BME280;5814;41.936;25.556;2024-03-25T12:49:36;98068.38;;;17.19;35.65
11515;BME280;5814;41.936;25.556;2024-03-25T12:52:05;98062.66;;;17.26;36.03
11515;BME280;5814;41.936;25.556;2024-03-25T12:54:32;98066.09;;;16.89;36.15
11515;BME280;5814;41.936;25.556;2024-03-25T12:56:58;98070.69;;;17.11;37.00